Time;durP1;ratioP1;P1;durP2;ratioP2;P2;SDS_P1;SDS_P2;PMS_P1;PMS_P2;Temp;Humidity;BMP_temperature;BMP_pressure;BME280_temperature;BME280_humidity;BME280_pressure;Samples;Min_cycle;Max_cycle;Signal;HPM_P1;HPM_P2
2022/09/02 00:01:32;;;;;;;6.03;5.53;;;16.10;94.30;;;;;;6248209;23;20167;-50
2022/09/02 00:04:04;;;;;;;5.33;4.93;;;16.10;94.40;;;;;;6247648;23;20384;-47
2022/09/02 00:06:30;;;;;;;5.73;5.20;;;16.20;94.30;;;;;;6248133;23;20397;-46
2022/09/02 00:08:56;;;;;;;5.80;5.30;;;16.10;94.60;;;;;;6247428;23;20420;-46
2022/09/02 00:11:26;;;;;;;5.30;4.90;;;16.00;94.50;;;;;;6247840;23;20543;-46
2022/09/02 00:13:52;;;;;;;6.27;5.67;;;16.00;94.70;;;;;;6248078;23;20774;-48
2022/09/02 00:16:18;;;;;;;5.80;5.30;;;16.00;94.70;;;;;;6248455;23;20381;-44
2022/09/02 00:18:44;;;;;;;5.53;5.13;;;15.90;94.80;;;;;;6248061;23;20404;-49
2022/09/02 00:21:12;;;;;;;5.60;4.80;;;16.00;94.20;;;;;;6248352;23;20395;-42
2022/09/02 00:23:38;;;;;;;5.77;5.23;;;15.90;94.50;;;;;;6248244;23;20147;-44
2022/09/02 00:26:04;;;;;;;6.93;6.33;;;15.80;94.70;;;;;;6247135;23;20381;-44
2022/09/02 00:28:30;;;;;;;5.20;4.80;;;15.80;94.60;;;;;;6247437;23;20404;-48
2022/09/02 00:30:56;;;;;;;5.20;4.80;;;15.90;95.00;;;;;;6247849;23;20165;-44
2022/09/02 00:33:22;;;;;;;5.17;4.80;;;15.80;95.20;;;;;;6247813;23;20131;-48
2022/09/02 00:35:48;;;;;;;6.47;5.97;;;15.80;95.40;;;;;;6198133;23;1155004;-46
2022/09/02 00:38:14;;;;;;;5.90;5.43;;;15.90;95.30;;;;;;6248330;23;20162;-45
2022/09/02 00:40:44;;;;;;;5.33;4.83;;;15.90;95.00;;;;;;6249656;23;20158;-46
2022/09/02 00:43:10;;;;;;;6.17;5.70;;;15.80;94.90;;;;;;6249833;23;20361;-47
2022/09/02 00:45:36;;;;;;;5.60;5.20;;;15.90;95.20;;;;;;6249616;23;20485;-44
2022/09/02 00:48:04;;;;;;;5.70;5.27;;;15.80;95.50;;;;;;6248539;23;20193;-45
2022/09/02 00:50:33;;;;;;;5.53;5.03;;;15.80;95.20;;;;;;6249913;23;20388;-44
2022/09/02 00:53:04;;;;;;;5.30;4.90;;;15.80;95.30;;;;;;6248259;23;20377;-48
2022/09/02 00:55:35;;;;;;;5.50;5.10;;;15.80;95.40;;;;;;6249763;22;20377;-46
2022/09/02 00:58:13;;;;;;;7.33;5.40;;;15.80;95.40;;;;;;6248043;23;20427;-45
2022/09/02 01:00:43;;;;;;;5.73;5.23;;;15.70;95.30;;;;;;6248415;23;20747;-44
2022/09/02 01:03:11;;;;;;;5.87;5.13;;;15.70;95.70;;;;;;6247881;23;20358;-44
2022/09/02 01:05:44;;;;;;;6.30;4.83;;;15.70;95.80;;;;;;6247285;23;20385;-50
2022/09/02 01:08:18;;;;;;;4.97;4.57;;;15.80;95.80;;;;;;6248155;23;20416;-49
2022/09/02 01:10:44;;;;;;;5.73;5.23;;;15.70;95.80;;;;;;6248610;23;20381;-45
2022/09/02 01:13:14;;;;;;;5.80;5.30;;;15.70;95.80;;;;;;6249603;23;20468;-48
2022/09/02 01:15:43;;;;;;;5.30;4.90;;;15.70;95.80;;;;;;6249137;23;20688;-47
2022/09/02 01:18:12;;;;;;;5.87;5.37;;;15.70;95.80;;;;;;6248719;23;20626;-43
2022/09/02 01:20:38;;;;;;;5.23;4.83;;;15.70;95.60;;;;;;6249200;23;20394;-47
2022/09/02 01:23:03;;;;;;;6.50;5.90;;;15.70;95.60;;;;;;6248652;23;20428;-44
2022/09/02 01:25:32;;;;;;;5.97;5.47;;;15.60;95.30;;;;;;6248969;23;20163;-45
2022/09/02 01:28:00;;;;;;;6.00;5.50;;;15.50;95.40;;;;;;6247699;23;20185;-49
2022/09/02 01:30:26;;;;;;;6.27;5.77;;;15.50;95.60;;;;;;6249479;23;20373;-51
2022/09/02 01:32:52;;;;;;;5.53;5.13;;;15.40;95.80;;;;;;6248873;23;20378;-45
2022/09/02 01:35:18;;;;;;;5.67;5.27;;;15.40;96.20;;;;;;6248678;23;20425;-46
2022/09/02 01:37:45;;;;;;;5.80;5.40;;;15.30;96.30;;;;;;6248637;23;20409;-46
2022/09/02 01:40:13;;;;;;;7.63;5.13;;;15.30;96.40;;;;;;6248916;23;20394;-48
2022/09/02 01:42:40;;;;;;;5.60;5.20;;;15.30;96.40;;;;;;6248845;23;20373;-46
2022/09/02 01:45:07;;;;;;;5.70;5.20;;;15.30;96.40;;;;;;6249210;23;20385;-48
2022/09/02 01:47:33;;;;;;;5.67;5.27;;;15.30;96.40;;;;;;6248851;23;20474;-47
2022/09/02 01:49:59;;;;;;;5.43;5.03;;;15.30;96.70;;;;;;6248543;23;20441;-47
2022/09/02 01:52:27;;;;;;;5.27;4.80;;;15.30;96.40;;;;;;6249363;23;20373;-47
2022/09/02 01:54:53;;;;;;;5.30;4.80;;;15.30;96.30;;;;;;6247759;22;20226;-45
2022/09/02 01:57:19;;;;;;;5.83;5.33;;;15.30;96.40;;;;;;6248596;23;20779;-48
2022/09/02 01:59:45;;;;;;;5.30;4.90;;;15.30;96.30;;;;;;6247587;23;20173;-46
2022/09/02 02:02:11;;;;;;;5.37;4.90;;;15.30;96.40;;;;;;6249069;23;20349;-46
2022/09/02 02:04:37;;;;;;;5.30;4.90;;;15.30;96.40;;;;;;6249555;23;20359;-46
2022/09/02 02:07:03;;;;;;;5.47;5.07;;;15.20;96.30;;;;;;6248742;23;20431;-43
2022/09/02 02:09:29;;;;;;;9.30;5.67;;;15.20;95.80;;;;;;6248766;22;20489;-47
2022/09/02 02:11:55;;;;;;;6.10;5.60;;;15.20;95.80;;;;;;6248692;23;20401;-44
2022/09/02 02:14:21;;;;;;;5.57;5.17;;;15.10;95.60;;;;;;6248974;23;20134;-44
2022/09/02 02:16:47;;;;;;;5.50;5.10;;;15.10;95.70;;;;;;6248751;23;20549;-44
2022/09/02 02:19:12;;;;;;;5.60;5.20;;;15.00;95.70;;;;;;6247775;23;20660;-45
2022/09/02 02:21:38;;;;;;;6.20;5.70;;;14.90;95.90;;;;;;6249197;23;20399;-44
2022/09/02 02:24:04;;;;;;;7.13;6.40;;;14.80;96.20;;;;;;6249545;23;20147;-46
2022/09/02 02:26:30;;;;;;;6.17;5.70;;;14.80;96.30;;;;;;6248515;23;20396;-43
2022/09/02 02:28:56;;;;;;;5.63;5.23;;;14.80;96.20;;;;;;6248194;23;20612;-44
2022/09/02 02:31:23;;;;;;;5.43;5.03;;;14.80;96.10;;;;;;6249460;23;20415;-48
2022/09/02 02:33:48;;;;;;;5.40;4.90;;;14.70;96.30;;;;;;6246673;23;20174;-47
2022/09/02 02:36:14;;;;;;;5.60;5.10;;;14.70;96.40;;;;;;6247067;23;20480;-46
2022/09/02 02:38:40;;;;;;;6.30;5.80;;;14.70;96.30;;;;;;6246636;23;20141;-46
2022/09/02 02:41:07;;;;;;;5.53;5.03;;;14.70;95.90;;;;;;6247063;23;20405;-43
2022/09/02 02:43:33;;;;;;;5.40;5.00;;;14.70;96.20;;;;;;6246871;23;20359;-49
2022/09/02 02:45:59;;;;;;;5.30;4.90;;;14.70;96.00;;;;;;6247007;23;20408;-46
2022/09/02 02:48:25;;;;;;;5.33;4.60;;;14.70;95.80;;;;;;6247868;23;20402;-47
2022/09/02 02:50:51;;;;;;;9.63;5.13;;;14.70;95.80;;;;;;6248504;23;20161;-44
2022/09/02 02:53:16;;;;;;;6.03;5.30;;;14.70;95.90;;;;;;6249261;23;20150;-47
2022/09/02 02:55:43;;;;;;;7.13;6.43;;;14.60;95.90;;;;;;6249165;23;20473;-41
2022/09/02 02:58:09;;;;;;;5.30;4.90;;;14.60;95.90;;;;;;6247570;23;20135;-44
2022/09/02 03:00:35;;;;;;;5.40;4.90;;;14.50;95.80;;;;;;6248279;23;20422;-48
2022/09/02 03:03:05;;;;;;;5.40;5.00;;;14.50;96.10;;;;;;6245469;23;20252;-45
2022/09/02 03:05:32;;;;;;;4.77;4.47;;;14.50;96.10;;;;;;6246856;23;20388;-46
2022/09/02 03:07:58;;;;;;;5.47;4.83;;;14.40;96.20;;;;;;6245990;23;20492;-48
2022/09/02 03:10:25;;;;;;;6.43;5.60;;;14.40;96.10;;;;;;6246849;23;20386;-42
2022/09/02 03:12:51;;;;;;;8.10;4.97;;;14.40;96.00;;;;;;6247020;23;20378;-42
2022/09/02 03:15:19;;;;;;;5.63;5.13;;;14.40;96.00;;;;;;6246481;23;20769;-43
2022/09/02 03:17:45;;;;;;;5.63;5.20;;;14.40;95.90;;;;;;6246441;23;20546;-45
2022/09/02 03:20:12;;;;;;;4.47;4.07;;;14.40;95.90;;;;;;6246118;23;20376;-44
2022/09/02 03:22:37;;;;;;;4.60;4.23;;;14.40;96.00;;;;;;6248583;22;20384;-44
2022/09/02 03:25:07;;;;;;;6.03;5.43;;;14.40;95.80;;;;;;6248937;23;20436;-41
2022/09/02 03:27:33;;;;;;;5.10;4.70;;;14.40;95.70;;;;;;6248395;23;20455;-43
2022/09/02 03:30:00;;;;;;;4.83;4.37;;;14.40;95.60;;;;;;6249439;23;20424;-47
2022/09/02 03:32:26;;;;;;;4.23;3.93;;;14.30;95.60;;;;;;6250257;23;20442;-44
2022/09/02 03:34:53;;;;;;;6.27;4.40;;;14.30;95.90;;;;;;6249891;23;20432;-43
2022/09/02 03:37:19;;;;;;;4.50;4.20;;;14.30;95.70;;;;;;6250134;23;20390;-44
2022/09/02 03:39:44;;;;;;;5.73;5.13;;;14.30;95.80;;;;;;6249740;23;20427;-46
2022/09/02 03:42:10;;;;;;;5.07;4.67;;;14.30;95.70;;;;;;6249751;23;20784;-46
2022/09/02 03:44:36;;;;;;;4.90;4.50;;;14.20;95.80;;;;;;6249176;23;20144;-45
2022/09/02 03:47:01;;;;;;;5.53;4.90;;;14.30;95.70;;;;;;6250434;23;20163;-44
2022/09/02 03:49:27;;;;;;;4.87;4.47;;;14.20;95.80;;;;;;6249884;23;20240;-45
2022/09/02 03:51:53;;;;;;;4.87;4.23;;;14.20;95.70;;;;;;6249777;23;20126;-42
2022/09/02 03:54:19;;;;;;;4.70;4.30;;;14.20;95.80;;;;;;6248555;23;20363;-47
2022/09/02 03:56:44;;;;;;;5.60;5.07;;;14.20;95.80;;;;;;6249599;23;20217;-44
2022/09/02 03:59:10;;;;;;;5.10;4.70;;;14.20;95.80;;;;;;6248006;23;20135;-43
2022/09/02 04:01:36;;;;;;;4.90;4.40;;;14.20;95.70;;;;;;6246928;23;20214;-44
2022/09/02 04:04:04;;;;;;;4.43;4.03;;;14.20;95.80;;;;;;6248819;23;20537;-44
2022/09/02 04:06:31;;;;;;;4.40;4.03;;;14.10;95.70;;;;;;6248018;23;20176;-43
2022/09/02 04:08:57;;;;;;;4.87;4.47;;;14.10;95.80;;;;;;6247632;23;20424;-44
2022/09/02 04:11:22;;;;;;;5.13;4.63;;;14.20;95.90;;;;;;6247315;23;20448;-47
2022/09/02 04:13:50;;;;;;;5.30;4.90;;;14.10;95.80;;;;;;6248302;23;20212;-45
2022/09/02 04:16:18;;;;;;;4.60;4.20;;;14.10;95.80;;;;;;6246563;23;20192;-46
2022/09/02 04:19:21;;;;;;;5.20;4.40;;;14.10;96.10;;;;;;6245624;23;20393;-47
2022/09/02 04:21:47;;;;;;;4.63;4.20;;;14.00;96.00;;;;;;6246109;23;20456;-45
2022/09/02 04:24:13;;;;;;;4.23;3.93;;;14.10;96.10;;;;;;6245886;23;20356;-44
2022/09/02 04:26:39;;;;;;;5.10;4.70;;;14.00;96.10;;;;;;6245585;23;20142;-44
2022/09/02 04:29:06;;;;;;;5.63;5.00;;;14.00;96.20;;;;;;6247388;23;20428;-45
2022/09/02 04:31:31;;;;;;;4.80;3.77;;;14.00;96.20;;;;;;6245308;23;20385;-46
2022/09/02 04:33:58;;;;;;;5.70;5.13;;;13.90;96.40;;;;;;6246394;23;20389;-47
2022/09/02 04:36:24;;;;;;;4.93;4.53;;;14.00;96.40;;;;;;6246006;23;20186;-45
2022/09/02 04:38:50;;;;;;;4.77;4.37;;;14.00;96.50;;;;;;6245476;23;20409;-47
2022/09/02 04:41:21;;;;;;;4.37;4.07;;;14.10;96.10;;;;;;6247402;23;20368;-48
2022/09/02 04:43:48;;;;;;;4.80;4.00;;;14.20;96.20;;;;;;6245995;23;20385;-48
2022/09/02 04:46:15;;;;;;;3.93;3.63;;;14.20;96.10;;;;;;6245522;23;20367;-44
2022/09/02 04:48:41;;;;;;;4.80;4.40;;;14.30;96.10;;;;;;6247879;23;20424;-44
2022/09/02 04:51:10;;;;;;;4.67;4.27;;;14.40;96.00;;;;;;6246506;23;20463;-48
2022/09/02 04:53:36;;;;;;;5.20;4.00;;;14.40;95.50;;;;;;6245894;23;20385;-46
2022/09/02 04:56:04;;;;;;;4.73;4.27;;;14.40;95.70;;;;;;6245942;22;20712;-45
2022/09/02 04:58:30;;;;;;;6.07;4.90;;;14.50;95.30;;;;;;6241440;23;20442;-45
2022/09/02 05:00:55;;;;;;;4.90;4.50;;;14.50;95.40;;;;;;6242688;23;20361;-47
2022/09/02 05:03:22;;;;;;;6.03;4.20;;;14.40;95.30;;;;;;6244338;23;20180;-45
2022/09/02 05:06:00;;;;;;;7.67;5.03;;;14.40;95.70;;;;;;6244316;23;20130;-48
2022/09/02 05:08:26;;;;;;;5.00;4.60;;;14.50;95.40;;;;;;6246193;23;20563;-47
2022/09/02 05:10:52;;;;;;;5.00;4.50;;;14.50;95.50;;;;;;6246021;23;20379;-51
2022/09/02 05:13:17;;;;;;;4.57;4.17;;;14.50;95.50;;;;;;6248136;23;20150;-47
2022/09/02 05:15:43;;;;;;;4.80;4.40;;;14.50;95.70;;;;;;6247459;23;20135;-44
2022/09/02 05:18:09;;;;;;;4.90;4.50;;;14.60;95.20;;;;;;6246262;23;20161;-44
2022/09/02 05:20:38;;;;;;;4.80;4.30;;;14.60;95.20;;;;;;6246461;23;20356;-44
2022/09/02 05:23:05;;;;;;;5.00;4.60;;;14.60;95.30;;;;;;6244715;23;20390;-46
2022/09/02 05:25:30;;;;;;;4.33;3.80;;;14.60;95.10;;;;;;6243063;23;20415;-48
2022/09/02 05:27:56;;;;;;;5.93;5.10;;;14.60;95.00;;;;;;6243076;23;20425;-48
2022/09/02 05:30:22;;;;;;;4.70;4.30;;;14.60;95.10;;;;;;6242912;23;20684;-45
2022/09/02 05:32:48;;;;;;;4.63;4.23;;;14.60;95.30;;;;;;6243336;23;20345;-46
2022/09/02 05:35:15;;;;;;;7.73;5.07;;;14.60;95.20;;;;;;6245291;22;20185;-49
2022/09/02 05:37:41;;;;;;;5.40;4.90;;;14.60;95.20;;;;;;6247571;23;20816;-46
2022/09/02 05:40:07;;;;;;;5.90;5.30;;;14.70;95.20;;;;;;6245277;23;20385;-45
2022/09/02 05:42:33;;;;;;;5.87;5.37;;;14.70;95.10;;;;;;6246036;23;20215;-47
2022/09/02 05:44:58;;;;;;;6.00;4.90;;;14.80;95.10;;;;;;6243002;23;20361;-48
2022/09/02 05:47:24;;;;;;;4.93;4.53;;;14.80;95.00;;;;;;6240122;23;20433;-48
2022/09/02 05:49:50;;;;;;;5.40;4.43;;;14.90;95.30;;;;;;6240587;23;20166;-46
2022/09/02 05:52:17;;;;;;;4.80;4.40;;;14.90;94.90;;;;;;6243322;23;20188;-48
2022/09/02 05:54:43;;;;;;;5.03;4.53;;;15.00;94.60;;;;;;6242337;23;20760;-48
2022/09/02 05:57:13;;;;;;;4.87;4.40;;;15.00;95.00;;;;;;6245035;23;20688;-48
2022/09/02 05:59:41;;;;;;;6.50;5.90;;;15.10;94.90;;;;;;6244214;23;20360;-45
2022/09/02 06:02:08;;;;;;;6.47;5.87;;;15.30;94.40;;;;;;6246626;23;20399;-45
2022/09/02 06:04:43;;;;;;;5.77;4.10;;;15.30;94.20;;;;;;6245256;23;20444;-45
2022/09/02 06:07:09;;;;;;;5.13;4.30;;;15.40;94.20;;;;;;6244401;23;20357;-44
2022/09/02 06:09:35;;;;;;;5.93;5.30;;;15.50;94.10;;;;;;6244792;22;20404;-48
2022/09/02 06:12:01;;;;;;;4.60;4.13;;;15.50;93.90;;;;;;6242203;23;20386;-47
2022/09/02 06:14:27;;;;;;;5.63;5.13;;;15.60;94.00;;;;;;6244066;23;20153;-48
2022/09/02 06:16:54;;;;;;;5.60;5.20;;;15.70;93.80;;;;;;6244817;23;20373;-47
2022/09/02 06:19:21;;;;;;;6.10;5.47;;;15.90;93.50;;;;;;6242052;23;20181;-47
2022/09/02 06:21:47;;;;;;;5.10;4.70;;;16.10;92.80;;;;;;6241077;23;20672;-46
2022/09/02 06:24:13;;;;;;;5.40;4.90;;;16.10;92.50;;;;;;6242641;23;20362;-45
2022/09/02 06:26:40;;;;;;;4.87;4.47;;;16.00;92.50;;;;;;6241301;23;20450;-45
2022/09/02 06:29:06;;;;;;;4.43;4.03;;;16.00;92.80;;;;;;6243201;22;20172;-46
2022/09/02 06:31:32;;;;;;;5.90;5.30;;;16.10;92.70;;;;;;6244608;23;20376;-45
2022/09/02 06:33:57;;;;;;;4.67;4.27;;;16.20;92.80;;;;;;6243135;23;20993;-46
2022/09/02 06:36:25;;;;;;;5.20;3.73;;;16.30;92.70;;;;;;6243631;23;20429;-44
2022/09/02 06:38:53;;;;;;;4.77;4.37;;;16.40;92.20;;;;;;6242877;23;20151;-44
2022/09/02 06:41:22;;;;;;;4.90;4.47;;;16.60;92.20;;;;;;6245761;23;20388;-48
2022/09/02 06:43:50;;;;;;;4.10;3.80;;;16.70;91.90;;;;;;6245337;23;20367;-47
2022/09/02 06:46:18;;;;;;;4.47;4.07;;;16.80;91.40;;;;;;6243252;23;20495;-44
2022/09/02 06:48:44;;;;;;;4.30;3.67;;;16.90;91.40;;;;;;6244068;23;20437;-45
2022/09/02 06:51:25;;;;;;;4.17;3.50;;;17.00;91.20;;;;;;6244461;23;20784;-43
2022/09/02 06:53:51;;;;;;;4.23;3.93;;;17.10;91.10;;;;;;6241729;23;20158;-47
2022/09/02 06:56:17;;;;;;;4.07;3.70;;;17.10;90.60;;;;;;6242609;23;20395;-44
2022/09/02 06:58:42;;;;;;;5.67;4.37;;;17.10;90.50;;;;;;6244710;23;20591;-51
2022/09/02 07:01:09;;;;;;;5.30;4.03;;;17.10;90.80;;;;;;6245474;23;20454;-47
2022/09/02 07:06:20;;;;;;;4.67;4.27;;;17.40;90.60;;;;;;6247525;23;20469;-45
2022/09/02 07:08:45;;;;;;;3.50;3.20;;;17.50;90.40;;;;;;6245282;23;20681;-45
2022/09/02 07:11:20;;;;;;;4.03;3.50;;;17.70;90.50;;;;;;6243611;23;20397;-45
2022/09/02 07:13:46;;;;;;;5.20;3.87;;;17.80;90.30;;;;;;6243772;23;20148;-43
2022/09/02 07:16:12;;;;;;;4.20;3.80;;;18.00;89.30;;;;;;6246409;23;20764;-49
2022/09/02 07:18:38;;;;;;;4.73;3.70;;;18.20;88.20;;;;;;6247379;23;20733;-43
2022/09/02 07:21:04;;;;;;;5.13;4.00;;;18.30;87.50;;;;;;6248277;23;20416;-49
2022/09/02 07:23:29;;;;;;;4.80;4.13;;;18.50;86.80;;;;;;6246210;23;20142;-45
2022/09/02 07:25:55;;;;;;;5.83;4.17;;;18.60;86.90;;;;;;6247890;23;20166;-47
2022/09/02 07:28:21;;;;;;;5.77;4.00;;;18.70;86.00;;;;;;6248338;23;20196;-44
2022/09/02 07:30:47;;;;;;;4.30;3.70;;;18.90;85.80;;;;;;6247623;23;20376;-47
2022/09/02 07:33:14;;;;;;;3.90;3.60;;;19.10;85.10;;;;;;6247577;23;20364;-45
2022/09/02 07:35:43;;;;;;;3.47;3.13;;;19.10;85.30;;;;;;6248069;23;20218;-46
2022/09/02 07:38:10;;;;;;;4.10;3.67;;;19.30;84.20;;;;;;6246470;23;20363;-44
2022/09/02 07:40:37;;;;;;;8.67;4.00;;;19.30;83.20;;;;;;6246955;23;20490;-45
2022/09/02 07:43:05;;;;;;;4.73;3.83;;;19.30;83.60;;;;;;6244388;23;20388;-44
2022/09/02 07:45:31;;;;;;;4.03;3.50;;;19.30;83.60;;;;;;6245519;23;20438;-45
2022/09/02 07:47:57;;;;;;;3.60;3.30;;;19.40;83.90;;;;;;6245547;23;20683;-45
2022/09/02 07:50:25;;;;;;;4.37;3.97;;;19.60;83.10;;;;;;6244720;23;20423;-43
2022/09/02 07:52:53;;;;;;;4.03;3.63;;;19.80;81.50;;;;;;6245791;23;20158;-48
2022/09/02 07:55:22;;;;;;;4.30;3.60;;;19.80;80.80;;;;;;6244157;23;20400;-43
2022/09/02 07:57:47;;;;;;;5.73;3.50;;;19.90;81.50;;;;;;6246281;23;20368;-44
2022/09/02 08:00:15;;;;;;;4.00;3.63;;;19.80;80.90;;;;;;6245889;23;20388;-43
2022/09/02 08:02:41;;;;;;;4.73;3.60;;;19.80;80.60;;;;;;6244704;23;20189;-46
2022/09/02 08:05:07;;;;;;;4.30;4.00;;;19.90;81.70;;;;;;6245362;23;20445;-48
2022/09/02 08:07:33;;;;;;;4.07;3.40;;;20.00;81.60;;;;;;6245988;23;20359;-45
2022/09/02 08:09:59;;;;;;;3.73;3.40;;;20.20;79.00;;;;;;6240818;23;20819;-42
2022/09/02 08:12:26;;;;;;;3.20;2.90;;;20.20;78.20;;;;;;6241104;23;20126;-50
2022/09/02 08:14:52;;;;;;;3.90;3.47;;;20.30;79.30;;;;;;6240928;23;20393;-49
2022/09/02 08:17:18;;;;;;;2.80;2.60;;;20.40;80.10;;;;;;6239285;23;20501;-47
2022/09/02 08:19:44;;;;;;;4.23;3.57;;;20.80;80.70;;;;;;6242172;23;20784;-45
2022/09/02 08:22:10;;;;;;;5.07;3.30;;;21.30;79.20;;;;;;6243392;23;20394;-46
2022/09/02 08:24:36;;;;;;;4.00;3.00;;;21.60;75.00;;;;;;6243796;23;20559;-44
2022/09/02 08:27:02;;;;;;;5.57;3.47;;;21.80;74.60;;;;;;6244984;23;20179;-46
2022/09/02 08:29:28;;;;;;;4.00;3.03;;;21.90;71.40;;;;;;6245907;23;20410;-46
2022/09/02 08:31:53;;;;;;;4.10;3.40;;;21.60;72.10;;;;;;6245228;23;20548;-46
2022/09/02 08:34:19;;;;;;;3.60;3.30;;;21.40;72.00;;;;;;6243004;23;20542;-44
2022/09/02 08:36:45;;;;;;;3.47;3.17;;;21.40;72.30;;;;;;6244161;23;20164;-46
2022/09/02 08:39:10;;;;;;;3.63;3.33;;;21.40;72.40;;;;;;6243463;23;20192;-48
2022/09/02 08:42:07;;;;;;;4.30;3.27;;;21.50;75.00;;;;;;6245786;23;20166;-50
2022/09/02 08:44:36;;;;;;;3.30;2.87;;;21.90;72.50;;;;;;6246238;23;20502;-43
2022/09/02 08:47:04;;;;;;;6.20;3.10;;;22.30;72.50;;;;;;6244819;23;20800;-48
2022/09/02 08:49:43;;;;;;;4.07;3.70;;;22.70;70.60;;;;;;6243061;23;20410;-44
2022/09/02 08:52:15;;;;;;;3.50;3.20;;;23.00;66.90;;;;;;6243960;23;20382;-44
2022/09/02 08:54:43;;;;;;;3.30;2.83;;;23.00;65.00;;;;;;6241441;23;20361;-45
2022/09/02 08:57:09;;;;;;;3.50;3.20;;;22.70;65.70;;;;;;6242142;23;20385;-45
2022/09/02 08:59:36;;;;;;;3.50;3.20;;;22.60;66.40;;;;;;6242573;23;20365;-48
2022/09/02 09:02:19;;;;;;;3.43;3.13;;;22.80;69.20;;;;;;6244743;23;20403;-45
2022/09/02 09:05:21;;;;;;;4.53;3.17;;;23.10;66.40;;;;;;6244158;23;20353;-48
2022/09/02 09:08:16;;;;;;;3.07;2.83;;;23.50;67.00;;;;;;6243240;23;20406;-46
2022/09/02 09:11:09;;;;;;;3.00;2.80;;;23.80;63.40;;;;;;6227622;23;20436;-43
2022/09/02 09:13:53;;;;;;;4.17;3.57;;;24.10;60.30;;;;;;6243220;23;20381;-45
2022/09/02 09:16:37;;;;;;;3.43;3.13;;;24.00;59.10;;;;;;6245924;23;20377;-48
2022/09/02 09:19:12;;;;;;;4.43;2.93;;;23.80;62.60;;;;;;6244879;23;20715;-48
2022/09/02 09:21:39;;;;;;;4.90;2.47;;;24.10;60.60;;;;;;6243844;23;20384;-47
2022/09/02 09:24:24;;;;;;;3.43;2.90;;;24.50;60.80;;;;;;6244230;23;20380;-44
2022/09/02 09:26:50;;;;;;;2.93;2.67;;;24.60;57.70;;;;;;6244676;23;20391;-47
2022/09/02 09:29:15;;;;;;;3.73;2.83;;;24.50;57.30;;;;;;6241003;23;20434;-45
2022/09/02 09:31:41;;;;;;;2.83;2.63;;;24.50;57.80;;;;;;6244263;23;20151;-49
2022/09/02 09:34:10;;;;;;;3.20;2.90;;;24.40;57.50;;;;;;6245088;23;20133;-44
2022/09/02 09:36:54;;;;;;;3.93;2.67;;;24.30;57.00;;;;;;6243559;23;20162;-47
2022/09/02 09:39:29;;;;;;;3.20;2.90;;;23.80;58.40;;;;;;6244339;23;20364;-49
2022/09/02 09:42:34;;;;;;;3.23;2.93;;;24.10;58.30;;;;;;6246935;23;20412;-47
2022/09/02 09:45:00;;;;;;;2.93;2.63;;;24.40;57.70;;;;;;6231983;23;20387;-43
2022/09/02 09:47:26;;;;;;;2.80;2.60;;;24.50;55.80;;;;;;6243675;23;20724;-44
2022/09/02 09:50:13;;;;;;;3.17;2.57;;;24.80;56.30;;;;;;6244949;23;20427;-44
2022/09/02 09:52:39;;;;;;;2.80;2.20;;;25.20;55.50;;;;;;6228903;23;20403;-50
2022/09/02 09:55:13;;;;;;;3.53;2.50;;;25.50;56.00;;;;;;6244571;23;20387;-48
2022/09/02 09:57:40;;;;;;;2.47;2.27;;;25.90;55.30;;;;;;6246405;23;20152;-45
2022/09/02 10:00:28;;;;;;;2.50;2.30;;;26.50;54.60;;;;;;6246407;22;20359;-46
2022/09/02 10:03:03;;;;;;;2.23;2.03;;;27.00;52.40;;;;;;6247631;23;20388;-46
2022/09/02 10:05:37;;;;;;;4.30;2.30;;;27.20;51.30;;;;;;6245454;23;20364;-45
2022/09/02 10:08:17;;;;;;;2.97;2.70;;;27.60;49.80;;;;;;6245379;22;20427;-48
2022/09/02 10:11:07;;;;;;;2.90;2.43;;;27.50;49.20;;;;;;6244331;23;20413;-49
2022/09/02 10:13:35;;;;;;;2.30;2.10;;;27.60;48.10;;;;;;6246635;22;20365;-45
2022/09/02 10:16:07;;;;;;;3.60;1.80;;;27.90;47.50;;;;;;6244246;23;20353;-46
2022/09/02 10:18:55;;;;;;;2.40;2.20;;;27.60;47.60;;;;;;6246687;23;20441;-45
2022/09/02 10:21:34;;;;;;;2.83;2.00;;;27.90;48.60;;;;;;6244731;23;20483;-45
2022/09/02 10:24:12;;;;;;;2.50;1.93;;;28.10;47.20;;;;;;6246799;23;20364;-49
2022/09/02 10:26:47;;;;;;;2.23;2.03;;;28.20;46.30;;;;;;6245338;23;20383;-44
2022/09/02 10:29:38;;;;;;;2.40;2.20;;;28.30;44.00;;;;;;6245233;23;20407;-45
2022/09/02 10:32:06;;;;;;;2.10;1.90;;;27.50;44.90;;;;;;6246608;23;20405;-43
2022/09/02 10:34:46;;;;;;;2.40;2.20;;;26.70;44.90;;;;;;6247536;23;20413;-43
2022/09/02 10:37:22;;;;;;;2.97;2.13;;;26.10;45.30;;;;;;6248927;23;20490;-45
2022/09/02 10:39:53;;;;;;;2.60;2.40;;;25.70;46.30;;;;;;6246988;23;20360;-50
2022/09/02 10:42:38;;;;;;;1.90;1.80;;;26.00;47.50;;;;;;6245545;23;20396;-49
2022/09/02 10:45:04;;;;;;;2.80;2.10;;;26.60;47.30;;;;;;6244176;23;20373;-44
2022/09/02 10:47:37;;;;;;;4.07;2.23;;;27.30;45.50;;;;;;6247841;23;20414;-46
2022/09/02 10:50:22;;;;;;;2.43;2.00;;;27.60;43.00;;;;;;6246871;23;20169;-45
2022/09/02 10:52:53;;;;;;;4.03;2.40;;;27.20;44.00;;;;;;6245619;23;20574;-51
2022/09/02 10:55:40;;;;;;;4.17;1.83;;;27.40;45.20;;;;;;6245667;23;20359;-50
2022/09/02 10:58:23;;;;;;;6.77;2.47;;;27.70;43.70;;;;;;6244351;22;20387;-50
2022/09/02 11:00:52;;;;;;;2.17;1.97;;;28.00;43.90;;;;;;6220801;23;20432;-48
2022/09/02 11:03:28;;;;;;;2.47;1.80;;;28.50;43.10;;;;;;6246380;23;20361;-49
2022/09/02 11:06:07;;;;;;;2.37;1.80;;;29.10;42.60;;;;;;6246014;23;20368;-48
2022/09/02 11:08:37;;;;;;;2.50;2.10;;;29.70;41.20;;;;;;6248168;23;20459;-47
2022/09/02 11:11:03;;;;;;;3.00;2.07;;;29.80;40.30;;;;;;6244768;23;20371;-44
2022/09/02 11:13:56;;;;;;;3.10;2.60;;;29.60;40.20;;;;;;6216896;23;20369;-45
2022/09/02 11:16:29;;;;;;;2.43;2.10;;;29.00;39.80;;;;;;6189903;23;20150;-45
2022/09/02 11:19:49;;;;;;;2.10;1.90;;;28.90;41.20;;;;;;6215022;23;20335;-49
2022/09/02 11:22:26;;;;;;;2.50;2.20;;;29.70;41.70;;;;;;6064664;23;20822;-47
2022/09/02 11:25:04;;;;;;;2.00;1.80;;;30.50;40.00;;;;;;6039358;23;20424;-49
2022/09/02 11:27:32;;;;;;;2.23;1.87;;;31.00;38.80;;;;;;6148146;23;20494;-50
2022/09/02 11:30:05;;;;;;;3.27;2.20;;;30.60;38.60;;;;;;6186471;23;20429;-49
2022/09/02 11:32:43;;;;;;;3.40;2.70;;;30.80;39.60;;;;;;6214448;23;20383;-47
2022/09/02 11:35:25;;;;;;;2.00;1.80;;;31.00;38.10;;;;;;6213415;23;20331;-49
2022/09/02 11:37:59;;;;;;;2.60;2.40;;;31.00;38.60;;;;;;6212867;23;20401;-50
2022/09/02 11:40:36;;;;;;;2.20;2.00;;;31.60;38.10;;;;;;6187988;23;20383;-44
2022/09/02 11:43:21;;;;;;;2.20;2.00;;;31.80;36.80;;;;;;6215798;23;20842;-45
2022/09/02 11:46:05;;;;;;;2.13;1.90;;;31.90;35.50;;;;;;6215092;23;20321;-44
2022/09/02 11:49:00;;;;;;;2.70;2.50;;;31.10;36.70;;;;;;6216400;23;20826;-45
2022/09/02 11:51:57;;;;;;;2.60;2.13;;;30.40;37.10;;;;;;6215997;23;20390;-44
2022/09/02 11:54:25;;;;;;;2.63;2.37;;;30.10;37.30;;;;;;6216774;23;20647;-47
2022/09/02 11:56:56;;;;;;;2.30;2.10;;;29.70;39.10;;;;;;6188927;23;20394;-49
2022/09/02 11:59:51;;;;;;;2.50;2.10;;;30.10;39.60;;;;;;6188810;23;20473;-49
2022/09/02 12:02:46;;;;;;;3.27;2.10;;;31.10;39.20;;;;;;6199088;23;20401;-47
2022/09/02 12:05:30;;;;;;;3.47;1.93;;;32.10;37.20;;;;;;6215130;23;20334;-51
2022/09/02 12:08:17;;;;;;;4.50;2.00;;;32.70;36.10;;;;;;6214105;23;20427;-50
2022/09/02 12:10:47;;;;;;;3.23;2.00;;;33.10;36.40;;;;;;6138551;23;20458;-52
2022/09/02 12:13:31;;;;;;;2.47;1.80;;;33.50;36.00;;;;;;6216090;23;21004;-48
2022/09/02 12:16:14;;;;;;;2.20;2.00;;;33.80;36.30;;;;;;6215808;23;20353;-48
2022/09/02 12:18:44;;;;;;;2.90;2.13;;;34.20;34.00;;;;;;6215721;23;20419;-48
2022/09/02 12:21:13;;;;;;;2.20;2.00;;;33.90;34.70;;;;;;6215539;23;20410;-48
2022/09/02 12:23:48;;;;;;;2.67;2.40;;;33.90;35.40;;;;;;6215665;23;20325;-45
2022/09/02 12:26:15;;;;;;;2.40;2.20;;;33.60;33.20;;;;;;6215623;23;20405;-46
2022/09/02 12:28:45;;;;;;;2.33;2.13;;;32.60;33.80;;;;;;6215135;23;20385;-49
2022/09/02 12:31:14;;;;;;;3.97;2.43;;;31.70;35.40;;;;;;6186382;23;20371;-52
2022/09/02 12:33:41;;;;;;;2.50;2.20;;;31.80;36.80;;;;;;6188173;23;20356;-47
2022/09/02 12:36:07;;;;;;;3.90;2.40;;;32.30;37.00;;;;;;6189390;23;20383;-46
2022/09/02 12:38:38;;;;;;;3.30;2.63;;;32.10;35.30;;;;;;6215617;23;20442;-46
2022/09/02 12:41:03;;;;;;;11.97;3.77;;;31.50;35.70;;;;;;6188583;23;20381;-51
2022/09/02 12:43:44;;;;;;;25.23;6.60;;;31.20;37.10;;;;;;6214315;23;20358;-48
2022/09/02 12:46:34;;;;;;;12.87;4.87;;;31.50;37.30;;;;;;6213977;23;20618;-51
2022/09/02 12:49:24;;;;;;;23.07;6.20;;;32.20;36.40;;;;;;6215255;23;20400;-52
2022/09/02 12:51:53;;;;;;;14.67;4.60;;;32.70;36.80;;;;;;6214780;23;20358;-49
2022/09/02 12:54:29;;;;;;;5.40;3.73;;;33.50;36.00;;;;;;6214692;23;20327;-48
2022/09/02 12:56:55;;;;;;;5.57;3.17;;;33.80;34.40;;;;;;6189726;23;20421;-49
2022/09/02 12:59:35;;;;;;;3.67;2.57;;;33.20;35.60;;;;;;6188676;23;20486;-48
2022/09/02 13:02:03;;;;;;;5.50;2.70;;;33.00;36.30;;;;;;6187695;23;20265;-45
2022/09/02 13:05:09;;;;;;;6.13;2.77;;;33.60;35.50;;;;;;6214178;23;20328;-47